Main page
METAR-TAF:

METAR-TAF

Airports :

Teesside International Airport

Durham, England

latitude: 54-31N, longitude: 001-25W, elevation: 37 m

Current weather observation

The report was made 1 hour and 33 minutes ago, at 21:50 UTC
Wind 5 kt from the Northwest
Temperature 15°C
Humidity 88%
Pressure 1004 hPa
Visibility 10 km or more
Few clouds at a height of 2000 ft
Scattered clouds at a height of 3200 ft

METAR: EGNV 302150Z 31005KT 9999 FEW020 SCT032 15/13 Q1004

Time: 00:23 (23:23 UTC)

Forecast

The report was made 3 hours and 4 minutes ago, at 20:19 UTC
Forecast valid from 30 at 20 UTC to 30 at 22 UTC
Wind 10 kt from the North
Visibility 10 km or more
Scattered clouds at a height of 2500 ft
Becoming
from 30 at 20 UTC to 30 at 22 UTC
Wind 6 kt from the West/Northwest

TAF: EGNV 302019Z 3020/3022 36010KT 9999 SCT025 BECMG 3020/3022 30006KT

Weather observations and forecasts of more than 4000 airports (METAR and TAF reports).

The available stations are represented by yellow and red dots on the map.

Hover mouse over dot to see the name of the station.

Then click to see weather observations and forecasts.

To change the map : click on the green buttons with a black cross to zoom in, on the green button with a dash to zoom out, or on the green arrows for adjacent maps.


METAR-TAF: